KMCB/MCB METAR and TAF weather

Enter ICAO airport designator
Station Type Date Time Source
KMCB METAR 2020/10/29 15:53 UTC NOAA

KMCB 291553Z AUTO 27013G21KT 10SM CLR 13/05 A2994 RMK AO2 SLP134 T01330050


Station Type Date Time Source
KMCB Decoded METAR 2020/10/29 15:53 UTC NOAA

MCCOMB/PIKE COUNTY AIRPORT, MS, United States (KMCB) 31-11N 90-28W 124M
Oct 29, 2020 - 11:53 AM EDT / 2020.10.29 1553 UTC
Wind: from the W (270 degrees) at 15 MPH (13 KT) gusting to 24 MPH (21 KT):0
Visibility: 10 mile(s):0
Sky conditions: clear
Temperature: 55.9 F (13.3 C)
Dew Point: 41.0 F (5.0 C)
Relative Humidity: 57%
Pressure (altimeter): 29.94 in. Hg (1013 hPa)
ob: KMCB 291553Z AUTO 27013G21KT 10SM CLR 13/05 A2994 RMK AO2 SLP134 T01330050
cycle: 16

Station Type Date Time Source
KMCB TAF 2020/10/29 12:22 UTC NOAA

TAF KMCB 291120Z 2912/3012 27009KT P6SM FEW015
FM291300 27008KT P6SM SKC
FM300700 35010KT P6SM BKN015

Example: see airport list